createdAt,value
2018-04-10T00:00:56.074Z,38.70
2018-04-10T00:01:59.478Z,37.65
2018-04-10T00:03:02.852Z,40.42
2018-04-10T00:04:06.282Z,39.92
2018-04-10T00:05:09.789Z,38.22
2018-04-10T00:06:13.159Z,39.83
2018-04-10T00:07:16.513Z,41.17
2018-04-10T00:08:19.975Z,40.05
2018-04-10T00:09:23.325Z,40.25
2018-04-10T00:10:27.073Z,40.20
2018-04-10T00:11:30.412Z,41.60
2018-04-10T00:12:33.732Z,39.63
2018-04-10T00:13:37.088Z,41.30
2018-04-10T00:14:41.821Z,46.60
2018-04-10T00:15:45.104Z,41.30
2018-04-10T00:16:48.474Z,41.92
2018-04-10T00:17:52.050Z,41.15
2018-04-10T00:18:55.562Z,39.45
2018-04-10T00:19:59.827Z,40.75
2018-04-10T00:21:04.069Z,39.63
2018-04-10T00:22:07.441Z,38.20
2018-04-10T00:23:11.638Z,40.03
2018-04-10T00:24:15.023Z,41.58
2018-04-10T00:25:18.393Z,41.35
2018-04-10T00:26:21.847Z,41.63
2018-04-10T00:27:25.195Z,40.00
2018-04-10T00:28:28.531Z,39.80
2018-04-10T00:29:31.846Z,39.95
2018-04-10T00:30:35.387Z,38.97
2018-04-10T00:31:38.834Z,40.20
2018-04-10T00:32:42.215Z,39.35
2018-04-10T00:33:45.570Z,38.22
2018-04-10T00:34:48.979Z,39.38
2018-04-10T00:35:52.359Z,38.05
2018-04-10T00:36:55.776Z,40.05
2018-04-10T00:37:59.462Z,37.67
2018-04-10T00:39:03.347Z,37.72
2018-04-10T00:40:06.736Z,40.08
2018-04-10T00:41:10.097Z,37.55
2018-04-10T00:42:13.458Z,38.95
2018-04-10T00:43:18.588Z,38.63
2018-04-10T00:44:22.054Z,39.72
2018-04-10T00:45:25.470Z,36.80
2018-04-10T00:46:28.871Z,40.30
2018-04-10T00:47:32.290Z,39.45
2018-04-10T00:48:35.837Z,36.30
2018-04-10T00:49:42.381Z,38.30
2018-04-10T00:50:47.294Z,38.90
2018-04-10T00:51:50.753Z,39.50
2018-04-10T00:52:54.104Z,38.78
2018-04-10T00:53:57.427Z,38.70
2018-04-10T00:55:00.767Z,38.33
2018-04-10T00:56:04.661Z,39.70
2018-04-10T00:57:08.033Z,39.30
2018-04-10T00:58:11.358Z,39.55
2018-04-10T00:59:14.710Z,37.78
2018-04-10T01:00:18.102Z,38.17
2018-04-10T01:01:22.040Z,38.25
2018-04-10T01:02:25.656Z,39.33
2018-04-10T01:03:28.964Z,38.60
2018-04-10T01:04:32.331Z,38.88
2018-04-10T01:05:35.673Z,38.03
2018-04-10T01:06:39.739Z,40.30
2018-04-10T01:07:43.075Z,38.30
2018-04-10T01:08:46.478Z,38.42
2018-04-10T01:09:49.827Z,38.88
2018-04-10T01:10:53.228Z,38.92
2018-04-10T01:11:56.643Z,36.65
2018-04-10T01:13:00.002Z,38.25
2018-04-10T01:14:03.390Z,38.92
2018-04-10T01:15:07.094Z,39.88
2018-04-10T01:16:10.482Z,37.95
2018-04-10T01:17:13.887Z,39.33
2018-04-10T01:18:17.276Z,37.92
2018-04-10T01:19:22.146Z,38.22
2018-04-10T01:20:25.538Z,37.55
2018-04-10T01:21:28.955Z,38.78
2018-04-10T01:22:32.375Z,38.60
2018-04-10T01:23:35.693Z,39.83
2018-04-10T01:24:39.108Z,38.42
2018-04-10T01:25:42.450Z,40.10
2018-04-10T01:26:45.792Z,39.47
2018-04-10T01:27:49.147Z,38.67
2018-04-10T01:28:53.233Z,37.53
2018-04-10T01:29:57.379Z,38.25
2018-04-10T01:31:00.704Z,39.72
2018-04-10T01:32:05.120Z,38.17
2018-04-10T01:33:08.427Z,38.80
2018-04-10T01:34:11.852Z,36.42
2018-04-10T01:35:15.205Z,39.35
2018-04-10T01:36:18.550Z,39.50
2018-04-10T01:37:21.882Z,37.33
2018-04-10T01:38:25.311Z,42.08
2018-04-10T01:39:29.329Z,36.95
2018-04-10T01:40:32.701Z,39.20
2018-04-10T01:41:36.118Z,38.65
2018-04-10T01:42:39.594Z,40.00
2018-04-10T01:43:43.174Z,39.35
2018-04-10T01:44:46.569Z,41.75
2018-04-10T01:45:49.888Z,38.83
2018-04-10T01:46:55.812Z,40.88
2018-04-10T01:47:59.789Z,42.72
2018-04-10T01:49:03.945Z,39.38
2018-04-10T01:50:07.315Z,38.67
2018-04-10T01:51:10.741Z,39.35
2018-04-10T01:52:14.778Z,36.90
2018-04-10T01:53:18.268Z,40.90
2018-04-10T01:54:22.315Z,40.15
2018-04-10T01:55:25.694Z,37.08
2018-04-10T01:56:29.119Z,37.63
2018-04-10T01:57:32.471Z,39.38
2018-04-10T01:58:35.816Z,38.33
2018-04-10T01:59:39.128Z,37.30
2018-04-10T02:00:42.483Z,36.78
2018-04-10T02:01:47.379Z,36.58
2018-04-10T02:02:51.566Z,39.03
2018-04-10T02:03:54.875Z,38.75
2018-04-10T02:04:58.307Z,35.85
2018-04-10T02:06:01.710Z,37.90
2018-04-10T02:07:05.089Z,40.70
2018-04-10T02:08:08.439Z,38.13
2018-04-10T02:09:11.750Z,38.65
2018-04-10T02:10:15.138Z,37.95
2018-04-10T02:11:18.518Z,36.95
2018-04-10T02:12:22.538Z,37.60
2018-04-10T02:13:25.888Z,35.47
2018-04-10T02:14:29.207Z,38.28
2018-04-10T02:15:32.546Z,37.80
2018-04-10T02:16:37.609Z,36.20
2018-04-10T02:17:42.908Z,36.17
2018-04-10T02:18:47.021Z,38.38
2018-04-10T02:19:49.646Z,34.97
2018-04-10T02:20:54.314Z,37.17
2018-04-10T02:21:57.747Z,34.13
2018-04-10T02:23:01.562Z,36.65
2018-04-10T02:24:04.947Z,35.47
2018-04-10T02:25:08.412Z,36.85
2018-04-10T02:26:12.054Z,34.58
2018-04-10T02:27:15.427Z,35.45
2018-04-10T02:28:18.774Z,35.65
2018-04-10T02:29:22.111Z,33.17
2018-04-10T02:30:25.900Z,35.45
2018-04-10T02:31:29.299Z,38.17
2018-04-10T02:32:32.645Z,36.08
2018-04-10T02:33:36.010Z,36.97
2018-04-10T02:34:39.384Z,34.50
2018-04-10T02:35:42.728Z,37.10
2018-04-10T02:36:46.884Z,33.67
2018-04-10T02:37:50.243Z,33.78
2018-04-10T02:38:53.540Z,37.50
2018-04-10T02:39:56.843Z,34.92
2018-04-10T02:41:01.583Z,37.03
2018-04-10T02:42:04.995Z,33.72
2018-04-10T02:43:08.979Z,36.03
2018-04-10T02:44:12.388Z,36.30
2018-04-10T02:45:15.793Z,34.28
2018-04-10T02:46:19.151Z,36.78
2018-04-10T02:47:22.556Z,38.53
2018-04-10T02:48:25.933Z,35.58
2018-04-10T02:49:29.512Z,35.47
2018-04-10T02:50:32.891Z,34.92
2018-04-10T02:51:36.245Z,34.33
2018-04-10T02:52:40.427Z,36.55
2018-04-10T02:53:48.834Z,37.50
2018-04-10T02:54:52.913Z,36.45
2018-04-10T02:55:56.304Z,34.53
2018-04-10T02:56:59.687Z,36.05
2018-04-10T02:58:03.072Z,39.92
2018-04-10T02:59:06.620Z,34.25
2018-04-10T03:00:09.944Z,36.58
2018-04-10T03:01:14.582Z,34.55
2018-04-10T03:02:17.964Z,35.60
2018-04-10T03:03:21.308Z,36.20
2018-04-10T03:04:24.653Z,36.17
2018-04-10T03:05:27.990Z,35.15
2018-04-10T03:06:31.306Z,35.33
2018-04-10T03:07:34.644Z,36.03
2018-04-10T03:08:37.977Z,36.63
2018-04-10T03:09:41.398Z,36.42
2018-04-10T03:10:44.719Z,37.45
2018-04-10T03:11:48.322Z,34.78
2018-04-10T03:12:52.506Z,37.03
2018-04-10T03:13:55.868Z,37.88
2018-04-10T03:14:59.290Z,37.10
2018-04-10T03:16:02.648Z,36.08
2018-04-10T03:17:05.987Z,36.42
2018-04-10T03:18:10.128Z,35.15
2018-04-10T03:19:13.573Z,37.28
2018-04-10T03:20:16.990Z,36.83
2018-04-10T03:21:21.115Z,36.55
2018-04-10T03:22:24.567Z,36.25
2018-04-10T03:23:27.859Z,35.08
2018-04-10T03:24:31.235Z,38.88
2018-04-10T03:25:34.641Z,36.97
2018-04-10T03:26:37.982Z,37.42
2018-04-10T03:27:41.450Z,35.92
2018-04-10T03:28:45.026Z,37.65
2018-04-10T03:29:48.382Z,37.65
2018-04-10T03:30:51.721Z,37.15
2018-04-10T03:31:55.150Z,36.35
2018-04-10T03:32:58.503Z,36.70
2018-04-10T03:34:02.813Z,38.17
2018-04-10T03:35:06.275Z,36.80
2018-04-10T03:36:09.635Z,38.28
2018-04-10T03:37:13.787Z,36.88
2018-04-10T03:38:17.168Z,34.70
2018-04-10T03:39:20.573Z,34.65
2018-04-10T03:40:23.950Z,36.35
2018-04-10T03:41:30.271Z,34.42
2018-04-10T03:42:33.632Z,36.70
2018-04-10T03:43:37.271Z,36.55
2018-04-10T03:44:40.660Z,35.95
2018-04-10T03:45:43.950Z,34.63
2018-04-10T03:46:47.301Z,35.50
2018-04-10T03:47:50.758Z,34.70
2018-04-10T03:48:54.034Z,36.38
2018-04-10T03:49:57.414Z,35.95
2018-04-10T03:51:00.728Z,36.50
2018-04-10T03:52:04.163Z,34.33
2018-04-10T03:53:07.550Z,35.03
2018-04-10T03:54:10.862Z,34.90
2018-04-10T03:55:14.177Z,35.03
2018-04-10T03:56:17.505Z,33.13
2018-04-10T03:57:20.919Z,33.45
2018-04-10T03:58:24.752Z,36.28
2018-04-10T03:59:28.123Z,36.75
2018-04-10T04:00:31.459Z,35.50
2018-04-10T04:01:35.590Z,34.90
2018-04-10T04:02:38.947Z,33.60
2018-04-10T04:03:42.266Z,34.53
2018-04-10T04:04:45.786Z,33.38
2018-04-10T04:05:49.109Z,34.95
2018-04-10T04:06:52.468Z,32.97
2018-04-10T04:07:55.902Z,35.28
2018-04-10T04:08:59.275Z,32.83
2018-04-10T04:10:02.697Z,34.70
2018-04-10T04:11:06.037Z,31.27
2018-04-10T04:12:09.640Z,33.72
2018-04-10T04:13:13.023Z,31.65
2018-04-10T04:14:16.407Z,34.35
2018-04-10T04:15:19.740Z,33.03
2018-04-10T04:16:34.752Z,33.20
2018-04-10T04:17:38.073Z,33.42
2018-04-10T04:18:53.227Z,34.67
2018-04-10T04:20:08.414Z,31.95
2018-04-10T04:21:23.669Z,31.95
2018-04-10T04:22:38.950Z,32.45
2018-04-10T04:23:42.472Z,33.60
2018-04-10T04:24:46.094Z,35.67
2018-04-10T04:25:49.486Z,32.70
2018-04-10T04:26:52.863Z,34.22
2018-04-10T04:27:56.269Z,35.08
2018-04-10T04:28:59.587Z,35.25
2018-04-10T04:30:02.999Z,32.53
2018-04-10T04:31:09.167Z,32.30
2018-04-10T04:32:13.281Z,33.30
2018-04-10T04:33:17.516Z,32.40
2018-04-10T04:34:20.988Z,32.53
2018-04-10T04:35:24.627Z,32.65
2018-04-10T04:36:27.979Z,33.38
2018-04-10T04:37:34.335Z,31.87
2018-04-10T04:38:37.687Z,33.15
2018-04-10T04:39:41.473Z,33.85
2018-04-10T04:40:45.692Z,32.85
2018-04-10T04:41:49.269Z,33.67
2018-04-10T04:42:52.681Z,32.45
2018-04-10T04:43:57.826Z,33.00
2018-04-10T04:45:01.826Z,33.20
2018-04-10T04:46:07.947Z,31.70
2018-04-10T04:47:12.444Z,33.83
2018-04-10T04:48:15.877Z,31.58
2018-04-10T04:49:20.177Z,31.58
2018-04-10T04:50:24.553Z,33.75
2018-04-10T04:51:27.934Z,30.83
2018-04-10T04:52:31.324Z,30.27
2018-04-10T04:53:35.025Z,31.67
2018-04-10T04:54:38.510Z,31.55
2018-04-10T04:55:41.825Z,32.90
2018-04-10T04:56:45.309Z,30.33
2018-04-10T04:57:48.672Z,30.45
2018-04-10T04:58:52.031Z,30.50
2018-04-10T04:59:55.539Z,30.10
2018-04-10T05:00:59.798Z,33.13
2018-04-10T05:02:03.285Z,32.42
2018-04-10T05:03:07.150Z,31.67
2018-04-10T05:04:12.105Z,31.48
2018-04-10T05:05:16.288Z,31.87
2018-04-10T05:06:19.753Z,32.90
2018-04-10T05:07:23.585Z,30.75
2018-04-10T05:08:28.047Z,31.77
2018-04-10T05:09:31.454Z,29.60
2018-04-10T05:10:34.783Z,31.83
2018-04-10T05:11:38.691Z,31.08
2018-04-10T05:12:42.139Z,31.40
2018-04-10T05:13:45.502Z,29.90
2018-04-10T05:14:48.850Z,32.08
2018-04-10T05:15:52.231Z,31.27
2018-04-10T05:16:55.608Z,31.00
2018-04-10T05:18:00.669Z,33.15
2018-04-10T05:19:07.039Z,30.15
2018-04-10T05:20:10.394Z,29.92
2018-04-10T05:21:13.710Z,30.05
2018-04-10T05:22:17.086Z,29.15
2018-04-10T05:23:20.514Z,30.52
2018-04-10T05:24:24.122Z,30.35
2018-04-10T05:25:27.524Z,28.38
2018-04-10T05:26:30.908Z,30.10
2018-04-10T05:27:34.399Z,29.05
2018-04-10T05:28:38.183Z,28.70
2018-04-10T05:29:41.485Z,30.60
2018-04-10T05:30:45.494Z,30.80
2018-04-10T05:31:49.598Z,30.27
2018-04-10T05:32:53.833Z,30.08
2018-04-10T05:33:57.542Z,30.40
2018-04-10T05:35:00.919Z,29.02
2018-04-10T05:36:04.355Z,27.45
2018-04-10T05:37:07.696Z,28.50
2018-04-10T05:38:11.239Z,27.77
2018-04-10T05:39:14.614Z,30.25
2018-04-10T05:40:18.409Z,27.45
2018-04-10T05:41:21.830Z,28.48
2018-04-10T05:42:25.425Z,30.05
2018-04-10T05:43:28.770Z,28.00
2018-04-10T05:44:33.048Z,25.75
2018-04-10T05:45:36.892Z,27.10
2018-04-10T05:46:40.260Z,28.48
2018-04-10T05:47:43.586Z,27.45
2018-04-10T05:48:47.188Z,26.10
2018-04-10T05:49:50.821Z,26.67
2018-04-10T05:50:54.217Z,26.30
2018-04-10T05:51:57.796Z,26.80
2018-04-10T05:53:03.481Z,26.77
2018-04-10T05:54:07.719Z,27.48
2018-04-10T05:55:11.072Z,25.95
2018-04-10T05:56:15.306Z,28.83
2018-04-10T05:57:18.631Z,25.98
2018-04-10T05:58:22.832Z,28.45
2018-04-10T05:59:26.183Z,28.45
2018-04-10T06:00:30.421Z,27.92
2018-04-10T06:01:35.810Z,26.10
2018-04-10T06:02:39.761Z,27.95
2018-04-10T06:03:43.285Z,27.55
2018-04-10T06:04:47.376Z,27.73
2018-04-10T06:05:50.896Z,28.62
2018-04-10T06:06:54.411Z,26.90
2018-04-10T06:07:57.722Z,26.08
2018-04-10T06:09:01.382Z,27.15
2018-04-10T06:10:04.958Z,26.67
2018-04-10T06:11:08.391Z,26.95
2018-04-10T06:12:12.275Z,27.92
2018-04-10T06:13:15.959Z,26.75
2018-04-10T06:14:19.345Z,26.05
2018-04-10T06:15:22.755Z,26.00
2018-04-10T06:16:26.235Z,27.58
2018-04-10T06:17:29.836Z,27.40
2018-04-10T06:18:33.676Z,27.48
2018-04-10T06:19:37.258Z,26.30
2018-04-10T06:20:40.655Z,25.98
2018-04-10T06:21:44.062Z,27.40
2018-04-10T06:22:47.533Z,27.48
2018-04-10T06:23:50.865Z,24.70
2018-04-10T06:24:54.178Z,25.33
2018-04-10T06:25:57.544Z,26.67
2018-04-10T06:27:01.035Z,28.05
2018-04-10T06:28:05.199Z,24.73
2018-04-10T06:29:08.531Z,27.85
2018-04-10T06:30:11.962Z,25.60
2018-04-10T06:31:16.816Z,26.40
2018-04-10T06:32:25.034Z,23.15
2018-04-10T06:33:29.359Z,24.23
2018-04-10T06:34:32.724Z,25.90
2018-04-10T06:35:37.775Z,26.42
2018-04-10T06:36:41.442Z,25.10
2018-04-10T06:37:44.760Z,23.65
2018-04-10T06:38:48.446Z,25.52
2018-04-10T06:39:52.504Z,25.15
2018-04-10T06:40:55.895Z,25.25
2018-04-10T06:41:59.244Z,24.40
2018-04-10T06:43:02.666Z,23.17
2018-04-10T06:44:05.980Z,24.30
2018-04-10T06:45:09.278Z,23.90
2018-04-10T06:46:12.821Z,23.33
2018-04-10T06:47:16.200Z,24.90
2018-04-10T06:48:20.224Z,22.70
2018-04-10T06:49:23.816Z,23.67
2018-04-10T06:50:27.386Z,23.08
2018-04-10T06:51:31.081Z,22.95
2018-04-10T06:52:34.597Z,24.17
2018-04-10T06:53:40.600Z,23.73
2018-04-10T06:54:43.912Z,23.58
2018-04-10T06:55:47.484Z,23.30
2018-04-10T06:56:50.987Z,23.42
2018-04-10T06:57:54.337Z,21.37
2018-04-10T06:59:00.108Z,21.08
2018-04-10T07:00:06.535Z,24.20
2018-04-10T07:01:10.309Z,22.00
2018-04-10T07:02:13.640Z,20.65
2018-04-10T07:03:17.009Z,20.95
2018-04-10T07:04:21.060Z,20.23
2018-04-10T07:05:24.405Z,22.00
2018-04-10T07:06:27.940Z,21.92
2018-04-10T07:07:31.264Z,20.85
2018-04-10T07:08:35.560Z,22.30
2018-04-10T07:09:40.124Z,22.05
2018-04-10T07:10:43.479Z,19.83
2018-04-10T07:11:46.826Z,22.52
2018-04-10T07:12:50.196Z,19.17
2018-04-10T07:13:53.946Z,19.15
2018-04-10T07:14:57.309Z,20.45
2018-04-10T07:16:00.638Z,20.02
2018-04-10T07:17:05.079Z,19.45
2018-04-10T07:18:09.485Z,18.55
2018-04-10T07:19:12.939Z,18.77
2018-04-10T07:20:16.389Z,19.27
2018-04-10T07:21:19.723Z,19.00
2018-04-10T07:22:23.189Z,19.15
2018-04-10T07:23:26.610Z,18.27
2018-04-10T07:24:30.063Z,17.35
2018-04-10T07:25:33.474Z,18.05
2018-04-10T07:26:36.862Z,18.15
2018-04-10T07:27:41.891Z,17.90
2018-04-10T07:28:47.798Z,18.92
2018-04-10T07:29:51.206Z,19.58
2018-04-10T07:30:55.040Z,17.20
2018-04-10T07:32:01.442Z,19.23
2018-04-10T07:33:06.162Z,18.70
2018-04-10T07:34:09.691Z,17.42
2018-04-10T07:35:13.330Z,17.73
2018-04-10T07:36:16.690Z,18.15
2018-04-10T07:37:20.056Z,17.52
2018-04-10T07:38:23.405Z,17.60
2018-04-10T07:39:27.510Z,17.60
2018-04-10T07:40:32.104Z,17.95
2018-04-10T07:41:35.467Z,17.62
2018-04-10T07:42:38.794Z,17.37
2018-04-10T07:43:42.150Z,17.08
2018-04-10T07:44:45.470Z,16.10
2018-04-10T07:45:48.948Z,17.10
2018-04-10T07:46:52.338Z,17.42
2018-04-10T07:47:55.731Z,17.05
2018-04-10T07:48:59.790Z,16.77
2018-04-10T07:50:04.337Z,16.77
2018-04-10T07:51:08.450Z,16.20
2018-04-10T07:52:11.903Z,15.88
2018-04-10T07:53:15.245Z,15.00
2018-04-10T07:54:20.397Z,14.98
2018-04-10T07:55:24.791Z,15.20
2018-04-10T07:56:28.265Z,14.27
2018-04-10T07:57:31.647Z,14.30
2018-04-10T07:58:35.245Z,15.65
2018-04-10T07:59:38.561Z,14.00
2018-04-10T08:00:41.948Z,17.08
2018-04-10T08:01:45.265Z,14.15
2018-04-10T08:02:48.631Z,14.25
2018-04-10T08:03:53.306Z,15.10
2018-04-10T08:04:56.642Z,15.25
2018-04-10T08:05:59.989Z,14.57
2018-04-10T08:07:03.931Z,15.30
2018-04-10T08:08:11.502Z,15.55
2018-04-10T08:09:28.504Z,14.65
2018-04-10T08:10:33.635Z,13.73
2018-04-10T08:11:45.146Z,15.10
2018-04-10T08:12:50.211Z,13.32
2018-04-10T08:13:57.984Z,13.88
2018-04-10T08:15:11.055Z,13.57
2018-04-10T08:16:20.697Z,15.63
2018-04-10T08:17:27.092Z,15.25
2018-04-10T08:18:32.134Z,16.33
2018-04-10T08:19:35.512Z,14.43
2018-04-10T08:20:40.500Z,14.48
2018-04-10T08:21:44.862Z,13.35
2018-04-10T08:22:49.595Z,12.80
2018-04-10T08:23:53.297Z,14.32
2018-04-10T08:24:58.018Z,12.98
2018-04-10T08:26:03.423Z,13.73
2018-04-10T08:27:07.376Z,12.63
2018-04-10T08:28:17.263Z,12.30
2018-04-10T08:29:22.357Z,11.98
2018-04-10T08:30:26.625Z,11.40
2018-04-10T08:31:30.694Z,12.45
2018-04-10T08:32:34.374Z,13.75
2018-04-10T08:33:38.398Z,12.80
2018-04-10T08:34:43.041Z,12.95
2018-04-10T08:35:49.058Z,12.30
2018-04-10T08:36:53.652Z,11.82
2018-04-10T08:37:58.094Z,13.93
2018-04-10T08:39:06.689Z,12.52
2018-04-10T08:40:10.050Z,11.30
2018-04-10T08:41:21.690Z,12.20
2018-04-10T08:42:28.004Z,10.35
2018-04-10T08:43:31.825Z,10.60
2018-04-10T08:44:35.152Z,11.43
2018-04-10T08:45:38.498Z,10.48
2018-04-10T08:46:46.064Z,10.73
2018-04-10T08:47:52.658Z,10.60
2018-04-10T08:48:59.705Z,11.25
2018-04-10T08:50:08.311Z,12.27
2018-04-10T08:51:11.695Z,10.10
2018-04-10T08:52:15.291Z,9.25
2018-04-10T08:53:18.610Z,10.30
2018-04-10T08:54:21.942Z,9.98
2018-04-10T08:55:27.822Z,10.85
2018-04-10T08:56:31.927Z,10.15
2018-04-10T08:57:35.368Z,9.55
2018-04-10T08:58:40.703Z,9.10
2018-04-10T08:59:44.545Z,9.95
2018-04-10T09:00:49.764Z,9.07
2018-04-10T09:01:54.030Z,8.73
2018-04-10T09:02:57.414Z,9.13
2018-04-10T09:04:05.015Z,9.38
2018-04-10T09:05:09.123Z,9.80
2018-04-10T09:06:13.247Z,10.60
2018-04-10T09:07:17.432Z,8.60
2018-04-10T09:08:25.058Z,10.25
2018-04-10T09:09:28.390Z,10.02
2018-04-10T09:10:31.799Z,10.55
2018-04-10T09:11:37.653Z,10.50
2018-04-10T09:12:42.821Z,10.95
2018-04-10T09:13:46.147Z,9.63
2018-04-10T09:14:49.556Z,10.20
2018-04-10T09:15:53.688Z,10.45
2018-04-10T09:16:58.020Z,11.88
2018-04-10T09:18:01.335Z,9.35
2018-04-10T09:19:05.628Z,10.75
2018-04-10T09:20:09.184Z,9.23
2018-04-10T09:21:15.184Z,10.00
2018-04-10T09:22:18.615Z,8.65
2018-04-10T09:23:21.945Z,7.95
2018-04-10T09:24:26.019Z,6.50
2018-04-10T09:25:29.410Z,7.57
2018-04-10T09:26:32.792Z,6.47
2018-04-10T09:27:36.129Z,7.47
2018-04-10T09:28:39.443Z,7.75
2018-04-10T09:29:42.827Z,8.95
2018-04-10T09:30:46.163Z,6.30
2018-04-10T09:31:49.614Z,6.82
2018-04-10T09:32:52.911Z,6.45
2018-04-10T09:33:56.610Z,6.62
2018-04-10T09:35:00.095Z,6.57
2018-04-10T09:36:04.821Z,7.18
2018-04-10T09:37:08.140Z,6.53
2018-04-10T09:38:11.442Z,7.05
2018-04-10T09:39:14.786Z,6.20
2018-04-10T09:40:18.153Z,6.80
2018-04-10T09:41:21.504Z,7.00
2018-04-10T09:42:24.902Z,7.05
2018-04-10T09:43:28.222Z,7.93
2018-04-10T09:44:31.601Z,7.45
2018-04-10T09:45:34.981Z,8.00
2018-04-10T09:46:38.324Z,7.00
2018-04-10T09:47:41.653Z,8.70
2018-04-10T09:48:45.005Z,7.93
2018-04-10T09:49:48.314Z,7.90
2018-04-10T09:50:51.695Z,8.85
2018-04-10T09:51:55.029Z,8.05
2018-04-10T09:52:58.462Z,8.20
2018-04-10T09:54:01.767Z,8.05
2018-04-10T09:55:05.410Z,8.40
2018-04-10T09:56:08.781Z,7.50
2018-04-10T09:57:12.176Z,8.20
2018-04-10T09:58:15.498Z,9.30
2018-04-10T09:59:18.851Z,8.68
2018-04-10T10:00:28.564Z,8.80
2018-04-10T10:01:31.878Z,9.77
2018-04-10T10:02:35.680Z,8.70
2018-04-10T10:03:38.999Z,8.60
2018-04-10T10:04:43.221Z,8.43
2018-04-10T10:05:46.618Z,8.25
2018-04-10T10:06:51.423Z,8.48
2018-04-10T10:07:54.810Z,8.07
2018-04-10T10:08:58.151Z,8.98
2018-04-10T10:10:01.535Z,7.90
2018-04-10T10:11:04.935Z,11.35
2018-04-10T10:12:08.309Z,8.30
2018-04-10T10:13:11.654Z,7.90
2018-04-10T10:14:15.027Z,8.30
2018-04-10T10:15:18.434Z,8.60
2018-04-10T10:16:21.811Z,7.70
2018-04-10T10:17:25.170Z,8.25
2018-04-10T10:18:28.507Z,8.00
2018-04-10T10:19:31.908Z,6.82
2018-04-10T10:20:35.285Z,6.85
2018-04-10T10:21:38.606Z,6.90
2018-04-10T10:22:41.964Z,8.27
2018-04-10T10:23:46.065Z,7.10
2018-04-10T10:24:49.396Z,7.32
2018-04-10T10:25:52.778Z,7.68
2018-04-10T10:26:56.121Z,7.12
2018-04-10T10:27:59.511Z,6.80
2018-04-10T10:29:03.288Z,6.68
2018-04-10T10:30:06.641Z,7.03
2018-04-10T10:31:10.066Z,6.70
2018-04-10T10:32:13.379Z,6.07
2018-04-10T10:33:16.760Z,7.05
2018-04-10T10:34:20.087Z,6.37
2018-04-10T10:35:23.427Z,6.62
2018-04-10T10:36:26.772Z,7.50
2018-04-10T10:37:30.136Z,6.25
2018-04-10T10:38:33.490Z,7.37
2018-04-10T10:39:36.832Z,8.32
2018-04-10T10:40:40.190Z,8.65
2018-04-10T10:41:43.550Z,8.57
2018-04-10T10:42:46.928Z,7.90
2018-04-10T10:43:50.294Z,8.75
2018-04-10T10:44:53.644Z,9.35
2018-04-10T10:45:57.000Z,8.63
2018-04-10T10:47:00.313Z,8.38
2018-04-10T10:48:03.777Z,7.15
2018-04-10T10:49:07.342Z,8.98
2018-04-10T10:50:10.999Z,8.05
2018-04-10T10:51:15.077Z,8.88
2018-04-10T10:52:18.415Z,8.15
2018-04-10T10:53:21.878Z,7.35
2018-04-10T10:54:25.226Z,7.18
2018-04-10T10:55:28.602Z,6.65
2018-04-10T10:56:31.916Z,7.10
2018-04-10T10:57:35.278Z,5.80
2018-04-10T10:58:38.578Z,7.00
2018-04-10T10:59:41.943Z,5.75
2018-04-10T11:00:45.320Z,7.57
2018-04-10T11:01:48.678Z,6.87
2018-04-10T11:02:52.014Z,6.80
2018-04-10T11:03:55.365Z,6.85
2018-04-10T11:04:58.726Z,6.50
2018-04-10T11:06:02.226Z,6.62
2018-04-10T11:07:05.561Z,6.70
2018-04-10T11:08:08.879Z,7.22
2018-04-10T11:09:12.267Z,7.35
2018-04-10T11:10:15.678Z,6.35
2018-04-10T11:11:19.055Z,5.75
2018-04-10T11:12:22.423Z,6.35
2018-04-10T11:13:25.851Z,6.05
2018-04-10T11:14:29.215Z,6.22
2018-04-10T11:15:32.607Z,6.40
2018-04-10T11:16:35.922Z,7.87
2018-04-10T11:17:39.291Z,6.30
2018-04-10T11:18:42.635Z,6.82
2018-04-10T11:19:46.213Z,5.30
2018-04-10T11:20:49.712Z,6.68
2018-04-10T11:21:53.070Z,5.97
2018-04-10T11:22:56.502Z,5.80
2018-04-10T11:23:59.854Z,5.35
2018-04-10T11:25:03.202Z,6.03
2018-04-10T11:26:06.814Z,6.10
2018-04-10T11:27:10.170Z,6.00
2018-04-10T11:28:13.514Z,6.50
2018-04-10T11:29:16.875Z,6.30
2018-04-10T11:30:20.262Z,6.97
2018-04-10T11:31:23.612Z,6.80
2018-04-10T11:32:27.025Z,6.85
2018-04-10T11:33:30.396Z,7.25
2018-04-10T11:34:33.943Z,7.82
2018-04-10T11:35:37.275Z,7.85
2018-04-10T11:36:40.728Z,7.47
2018-04-10T11:37:44.031Z,7.40
2018-04-10T11:38:47.354Z,7.18
2018-04-10T11:39:50.709Z,8.00
2018-04-10T11:40:54.036Z,7.43
2018-04-10T11:41:57.379Z,7.00
2018-04-10T11:43:00.710Z,6.50
2018-04-10T11:44:04.111Z,7.07
2018-04-10T11:45:07.474Z,7.72
2018-04-10T11:46:10.815Z,6.62
2018-04-10T11:47:14.195Z,6.68
2018-04-10T11:48:17.517Z,6.32
2018-04-10T11:49:20.857Z,7.50
2018-04-10T11:50:24.193Z,7.00
2018-04-10T11:51:27.516Z,6.90
2018-04-10T11:52:30.925Z,6.32
2018-04-10T11:53:34.299Z,6.68
2018-04-10T11:54:37.652Z,7.82
2018-04-10T11:55:40.982Z,7.20
2018-04-10T11:56:44.323Z,6.65
2018-04-10T11:57:47.692Z,7.78
2018-04-10T11:58:51.029Z,6.60
2018-04-10T11:59:54.327Z,6.60
2018-04-10T12:00:57.667Z,6.62
2018-04-10T12:02:01.045Z,6.10
2018-04-10T12:03:04.379Z,7.07
2018-04-10T12:04:07.738Z,6.65
2018-04-10T12:05:11.102Z,6.65
2018-04-10T12:06:14.421Z,6.30
2018-04-10T12:07:17.760Z,5.32
2018-04-10T12:08:21.153Z,6.22
2018-04-10T12:09:24.496Z,6.00
2018-04-10T12:10:27.938Z,6.47
2018-04-10T12:11:31.274Z,5.72
2018-04-10T12:12:34.742Z,6.25
2018-04-10T12:13:38.076Z,6.32
2018-04-10T12:14:41.468Z,5.07
2018-04-10T12:15:45.186Z,6.28
2018-04-10T12:16:48.510Z,6.00
2018-04-10T12:17:51.893Z,6.15
2018-04-10T12:18:55.350Z,5.60
2018-04-10T12:19:58.688Z,5.30
2018-04-10T12:21:02.062Z,8.05
2018-04-10T12:22:05.400Z,5.70
2018-04-10T12:23:08.738Z,5.37
2018-04-10T12:24:12.210Z,6.10
2018-04-10T12:25:15.545Z,5.15
2018-04-10T12:26:18.950Z,5.18
2018-04-10T12:27:22.379Z,4.97
2018-04-10T12:28:25.720Z,5.97
2018-04-10T12:29:29.218Z,5.85
2018-04-10T12:30:32.720Z,5.43
2018-04-10T12:31:36.060Z,5.57
2018-04-10T12:32:39.906Z,5.55
2018-04-10T12:33:43.294Z,7.35
2018-04-10T12:34:46.644Z,6.60
2018-04-10T12:35:49.992Z,6.07
2018-04-10T12:36:53.331Z,5.72
2018-04-10T12:37:56.691Z,5.18
2018-04-10T12:39:00.024Z,5.60
2018-04-10T12:40:03.382Z,6.32
2018-04-10T12:41:06.731Z,5.30
2018-04-10T12:42:10.145Z,5.22
2018-04-10T12:43:13.464Z,5.50
2018-04-10T12:44:16.802Z,5.35
2018-04-10T12:45:20.210Z,5.25
2018-04-10T12:46:23.575Z,9.00
2018-04-10T12:47:26.936Z,6.65
2018-04-10T12:48:30.253Z,5.50
2018-04-10T12:49:33.606Z,5.97
2018-04-10T12:50:36.968Z,5.30
2018-04-10T12:51:40.298Z,5.65
2018-04-10T12:52:43.651Z,6.45
2018-04-10T12:53:46.955Z,5.25
2018-04-10T12:54:50.340Z,5.50
2018-04-10T12:55:53.993Z,5.05
2018-04-10T12:56:57.314Z,5.87
2018-04-10T12:58:00.639Z,4.60
2018-04-10T12:59:04.071Z,4.53
2018-04-10T13:00:07.415Z,5.30
2018-04-10T13:01:10.770Z,6.72
2018-04-10T13:02:14.171Z,4.47
2018-04-10T13:03:18.539Z,5.05
2018-04-10T13:04:21.961Z,4.97
2018-04-10T13:05:25.308Z,4.50
2018-04-10T13:06:28.663Z,4.72
2018-04-10T13:07:32.047Z,5.43
2018-04-10T13:08:37.052Z,5.15
2018-04-10T13:09:40.378Z,5.57
2018-04-10T13:10:43.963Z,5.53
2018-04-10T13:11:47.827Z,5.78
2018-04-10T13:12:51.266Z,5.57
2018-04-10T13:13:54.674Z,5.18
2018-04-10T13:14:58.036Z,5.22
2018-04-10T13:16:01.492Z,5.30
2018-04-10T13:17:04.851Z,5.05
2018-04-10T13:18:08.229Z,5.10
2018-04-10T13:19:13.443Z,5.70
2018-04-10T13:20:16.764Z,6.10
2018-04-10T13:21:20.141Z,5.90
2018-04-10T13:22:23.510Z,5.15
2018-04-10T13:23:31.411Z,5.87
2018-04-10T13:24:34.789Z,5.22
2018-04-10T13:25:39.533Z,6.13
2018-04-10T13:26:42.914Z,5.95
2018-04-10T13:27:46.237Z,5.78
2018-04-10T13:28:50.494Z,5.68
2018-04-10T13:29:53.843Z,5.10
2018-04-10T13:30:57.540Z,5.70
2018-04-10T13:32:01.253Z,5.20
2018-04-10T13:33:04.594Z,5.18
2018-04-10T13:34:07.951Z,4.90
2018-04-10T13:35:11.322Z,4.55
2018-04-10T13:36:15.177Z,6.03
2018-04-10T13:37:18.516Z,5.65
2018-04-10T13:38:22.112Z,4.82
2018-04-10T13:39:26.367Z,4.60
2018-04-10T13:40:29.700Z,5.20
2018-04-10T13:41:35.284Z,4.82
2018-04-10T13:42:40.349Z,4.85
2018-04-10T13:43:43.715Z,4.97
2018-04-10T13:44:49.323Z,5.28
2018-04-10T13:45:52.672Z,5.15
2018-04-10T13:46:57.866Z,4.95
2018-04-10T13:48:07.522Z,4.47
2018-04-10T13:49:10.914Z,4.60
2018-04-10T13:50:14.244Z,4.90
2018-04-10T13:51:18.351Z,3.95
2018-04-10T13:52:21.694Z,4.28